createdAt,value
2019-03-17T00:00:16.579Z,7.68
2019-03-17T00:05:13.628Z,7.73
2019-03-17T00:10:10.690Z,7.87
2019-03-17T00:15:07.654Z,8.01
2019-03-17T00:20:08.308Z,8.08
2019-03-17T00:25:09.659Z,8.21
2019-03-17T00:30:08.525Z,8.28
2019-03-17T00:35:05.754Z,8.39
2019-03-17T00:40:05.246Z,8.39
2019-03-17T00:45:04.695Z,8.32
2019-03-17T00:50:02.034Z,8.35
2019-03-17T00:55:00.718Z,8.42
2019-03-17T00:59:57.867Z,8.47
2019-03-17T01:04:56.427Z,8.52
2019-03-17T01:09:54.417Z,8.33
2019-03-17T01:14:53.232Z,8.41
2019-03-17T01:19:50.444Z,8.43
2019-03-17T01:24:50.501Z,8.49
2019-03-17T01:29:47.762Z,8.36
2019-03-17T01:34:44.767Z,8.30
2019-03-17T01:39:43.728Z,8.23
2019-03-17T01:44:42.594Z,8.25
2019-03-17T01:49:41.634Z,8.25
2019-03-17T01:54:38.775Z,8.15
2019-03-17T01:59:36.369Z,8.09
2019-03-17T02:04:33.453Z,8.12
2019-03-17T02:09:30.656Z,8.08
2019-03-17T02:14:28.595Z,8.15
2019-03-17T02:19:26.812Z,8.13
2019-03-17T02:24:23.797Z,8.13
2019-03-17T02:29:24.596Z,8.09
2019-03-17T02:34:21.702Z,8.14
2019-03-17T02:39:18.831Z,8.11
2019-03-17T02:44:18.530Z,8.03
2019-03-17T02:49:15.645Z,7.98
2019-03-17T02:54:12.711Z,7.98
2019-03-17T02:59:11.722Z,7.96
2019-03-17T03:04:08.807Z,8.05
2019-03-17T03:09:08.226Z,7.99
2019-03-17T03:14:05.331Z,8.16
2019-03-17T03:19:07.344Z,8.09
2019-03-17T03:24:04.443Z,8.15
2019-03-17T03:29:01.582Z,8.25
2019-03-17T03:34:03.479Z,8.31
2019-03-17T03:39:00.609Z,8.28
2019-03-17T03:43:57.743Z,8.32
2019-03-17T03:48:56.298Z,8.39
2019-03-17T03:53:53.422Z,8.39
2019-03-17T03:58:50.475Z,8.35
2019-03-17T04:03:49.950Z,8.37
2019-03-17T04:08:48.990Z,8.48
2019-03-17T04:13:47.984Z,8.78
2019-03-17T04:18:48.299Z,8.89
2019-03-17T04:23:45.526Z,8.93
2019-03-17T04:28:42.575Z,9.10
2019-03-17T04:33:39.737Z,8.96
2019-03-17T04:38:38.314Z,9.01
2019-03-17T04:43:35.366Z,9.01
2019-03-17T04:48:32.307Z,8.99
2019-03-17T04:53:32.335Z,9.01
2019-03-17T04:58:29.516Z,8.95
2019-03-17T05:03:28.629Z,8.84
2019-03-17T05:08:27.148Z,8.91
2019-03-17T05:13:24.379Z,9.03
2019-03-17T05:18:23.558Z,9.05
2019-03-17T05:23:22.559Z,9.15
2019-03-17T05:28:23.039Z,9.21
2019-03-17T05:33:18.990Z,9.30
2019-03-17T05:38:16.096Z,9.32
2019-03-17T05:43:15.102Z,9.56
2019-03-17T05:48:12.262Z,9.69
2019-03-17T05:53:09.352Z,9.80
2019-03-17T05:58:07.969Z,9.68
2019-03-17T06:03:05.441Z,9.82
2019-03-17T06:08:02.553Z,10.34
2019-03-17T06:12:59.678Z,10.85
2019-03-17T06:17:56.886Z,10.74
2019-03-17T06:22:54.017Z,10.51
2019-03-17T06:27:52.635Z,10.69
2019-03-17T06:32:49.806Z,10.61
2019-03-17T06:37:46.901Z,10.48
2019-03-17T06:42:44.086Z,10.57
2019-03-17T06:47:41.207Z,11.36
2019-03-17T06:52:40.215Z,12.16
2019-03-17T06:57:37.243Z,13.28
2019-03-17T07:02:34.473Z,14.26
2019-03-17T07:07:43.132Z,14.82
2019-03-17T07:12:31.523Z,14.53
2019-03-17T07:17:31.728Z,15.07
2019-03-17T07:22:28.798Z,14.27
2019-03-17T07:27:27.879Z,13.85
2019-03-17T07:32:27.028Z,13.62
2019-03-17T07:37:24.119Z,13.87
2019-03-17T07:42:21.164Z,13.45
2019-03-17T07:47:20.899Z,13.72
2019-03-17T07:52:20.024Z,13.73
2019-03-17T07:57:17.030Z,13.89
2019-03-17T08:02:14.309Z,13.61
2019-03-17T08:07:13.311Z,13.87
2019-03-17T08:12:10.428Z,14.38
2019-03-17T08:17:07.510Z,14.91
2019-03-17T08:22:04.825Z,14.64
2019-03-17T08:27:04.085Z,14.11
2019-03-17T08:32:02.606Z,15.36
2019-03-17T08:37:07.334Z,15.91
2019-03-17T08:42:05.191Z,16.57
2019-03-17T08:47:02.158Z,16.79
2019-03-17T08:51:59.213Z,17.43
2019-03-17T08:56:56.260Z,17.70
2019-03-17T09:01:55.300Z,18.05
2019-03-17T09:06:53.870Z,16.95
2019-03-17T09:11:53.200Z,18.22
2019-03-17T09:16:51.414Z,18.78
2019-03-17T09:21:48.727Z,18.78
2019-03-17T09:26:46.099Z,18.40
2019-03-17T09:31:43.302Z,18.58
2019-03-17T09:36:40.291Z,18.29
2019-03-17T09:41:37.412Z,17.57
2019-03-17T09:46:34.518Z,16.83
2019-03-17T09:51:31.573Z,16.39
2019-03-17T09:56:28.998Z,17.15
2019-03-17T10:01:26.080Z,16.68
2019-03-17T10:06:25.016Z,17.46
2019-03-17T10:11:25.219Z,18.25
2019-03-17T10:16:22.230Z,18.77
2019-03-17T10:21:19.338Z,19.39
2019-03-17T10:26:20.003Z,19.78
2019-03-17T10:31:17.125Z,19.11
2019-03-17T10:36:14.225Z,17.95
2019-03-17T10:41:12.748Z,17.11
2019-03-17T10:46:13.885Z,17.05
2019-03-17T10:51:11.102Z,16.48
2019-03-17T10:56:08.209Z,17.86
2019-03-17T11:01:05.491Z,17.87
2019-03-17T11:06:02.586Z,18.43
2019-03-17T11:10:59.652Z,18.34
2019-03-17T11:15:58.317Z,19.23
2019-03-17T11:20:58.306Z,19.22
2019-03-17T11:25:55.368Z,19.11
2019-03-17T11:30:59.553Z,19.52
2019-03-17T11:35:56.679Z,19.19
2019-03-17T11:40:53.721Z,19.46
2019-03-17T11:45:53.542Z,18.78
2019-03-17T11:50:50.969Z,19.01
2019-03-17T11:55:50.887Z,18.10
2019-03-17T12:00:47.851Z,19.21
2019-03-17T12:05:44.962Z,19.32
2019-03-17T12:10:43.976Z,18.96
2019-03-17T12:15:40.984Z,19.02
2019-03-17T12:20:41.798Z,18.80
2019-03-17T12:25:38.841Z,18.57
2019-03-17T12:30:37.922Z,18.69
2019-03-17T12:35:38.843Z,19.23
2019-03-17T12:40:38.477Z,19.78
2019-03-17T12:45:36.711Z,19.78
2019-03-17T12:50:36.777Z,18.97
2019-03-17T12:55:33.884Z,18.80
2019-03-17T13:00:31.848Z,18.88
2019-03-17T13:05:28.972Z,18.20
2019-03-17T13:10:28.967Z,18.48
2019-03-17T13:15:27.902Z,17.97
2019-03-17T13:20:25.081Z,18.01
2019-03-17T13:25:25.829Z,18.29
2019-03-17T13:30:22.982Z,18.50
2019-03-17T13:35:20.093Z,19.06
2019-03-17T13:40:28.685Z,17.87
2019-03-17T13:45:20.633Z,17.58
2019-03-17T13:50:22.182Z,17.74
2019-03-17T14:01:40.812Z,18.33
2019-03-17T14:06:39.051Z,17.97
2019-03-17T14:11:36.134Z,17.87
2019-03-17T14:16:33.290Z,17.67
2019-03-17T14:21:30.396Z,17.74
2019-03-17T14:26:27.511Z,17.77
2019-03-17T14:31:24.554Z,17.47
2019-03-17T14:36:21.626Z,17.41
2019-03-17T14:41:18.659Z,17.33
2019-03-17T14:46:16.104Z,17.12
2019-03-17T14:51:15.049Z,17.29
2019-03-17T14:56:14.171Z,17.08
2019-03-17T15:01:17.151Z,17.16
2019-03-17T15:06:15.422Z,17.05
2019-03-17T15:11:12.564Z,17.10
2019-03-17T15:16:12.639Z,16.83
2019-03-17T15:21:09.912Z,16.69
2019-03-17T15:26:07.068Z,16.64
2019-03-17T15:31:11.709Z,16.29
2019-03-17T15:36:05.996Z,16.55
2019-03-17T15:41:03.523Z,16.40
2019-03-17T15:46:04.428Z,16.74
2019-03-17T15:51:01.585Z,16.53
2019-03-17T15:55:58.660Z,16.20
2019-03-17T16:00:56.341Z,15.99
2019-03-17T16:05:53.568Z,15.90
2019-03-17T16:10:52.756Z,15.84
2019-03-17T16:15:49.799Z,15.76
2019-03-17T16:20:47.019Z,15.60
2019-03-17T16:25:44.103Z,15.48
2019-03-17T16:30:44.190Z,15.33
2019-03-17T16:35:41.543Z,15.26
2019-03-17T16:40:38.643Z,15.38
2019-03-17T16:45:36.871Z,15.23
2019-03-17T16:50:34.203Z,15.24
2019-03-17T16:55:32.517Z,14.81
2019-03-17T17:00:29.739Z,15.00
2019-03-17T17:05:27.542Z,14.84
2019-03-17T17:10:27.394Z,14.99
2019-03-17T17:15:28.917Z,14.77
2019-03-17T17:20:34.471Z,14.71
2019-03-17T17:25:31.767Z,14.89
2019-03-17T17:30:30.169Z,14.97
2019-03-17T17:35:27.241Z,15.04
2019-03-17T17:40:26.881Z,14.93
2019-03-17T17:45:24.844Z,14.85
2019-03-17T17:50:26.240Z,14.71
2019-03-17T17:55:23.314Z,14.58
2019-03-17T18:00:26.514Z,14.86
2019-03-17T18:05:23.556Z,14.73
2019-03-17T18:10:20.745Z,14.37
2019-03-17T18:15:23.022Z,14.41
2019-03-17T18:20:21.840Z,14.30
2019-03-17T18:25:22.273Z,14.36
2019-03-17T18:30:22.333Z,14.17
2019-03-17T18:35:19.410Z,14.05
2019-03-17T18:40:20.829Z,14.19
2019-03-17T18:45:27.721Z,14.23
2019-03-17T18:50:24.818Z,13.91
2019-03-17T18:55:21.976Z,13.77
2019-03-17T19:00:24.454Z,13.61
2019-03-17T19:05:21.522Z,13.71
2019-03-17T19:10:19.713Z,13.47
2019-03-17T19:15:23.900Z,13.48
2019-03-17T19:20:22.822Z,13.77
2019-03-17T19:25:23.870Z,13.69
2019-03-17T19:30:22.062Z,14.08
2019-03-17T19:35:20.021Z,14.32
2019-03-17T19:40:21.905Z,14.40
2019-03-17T19:45:18.999Z,14.73
2019-03-17T19:50:18.579Z,14.77
2019-03-17T19:55:15.781Z,14.77
2019-03-17T20:00:17.760Z,14.97
2019-03-17T20:05:14.806Z,15.01
2019-03-17T20:10:19.523Z,15.10
2019-03-17T20:15:16.474Z,15.01
2019-03-17T20:20:14.993Z,14.92
2019-03-17T20:25:12.518Z,15.05
2019-03-17T20:30:17.110Z,14.99
2019-03-17T20:35:14.315Z,14.99
2019-03-17T20:40:15.221Z,14.95
2019-03-17T20:45:14.943Z,14.83
2019-03-17T20:50:15.309Z,14.85
2019-03-17T20:55:12.553Z,14.80
2019-03-17T21:00:15.517Z,14.64
2019-03-17T21:05:12.649Z,14.58
2019-03-17T21:10:12.476Z,14.46
2019-03-17T21:15:17.356Z,14.30
2019-03-17T21:20:24.309Z,14.26
2019-03-17T21:25:21.740Z,14.33
2019-03-17T21:30:29.002Z,14.38
2019-03-17T21:35:26.018Z,14.35
2019-03-17T21:40:23.045Z,14.17
2019-03-17T21:45:20.169Z,14.14
2019-03-17T21:50:18.687Z,14.27
2019-03-17T21:55:15.685Z,14.18
2019-03-17T22:00:18.363Z,14.03
2019-03-17T22:05:16.206Z,13.89
2019-03-17T22:10:18.096Z,13.69
2019-03-17T22:15:16.094Z,13.81
2019-03-17T22:20:14.193Z,13.48
2019-03-17T22:25:13.756Z,13.74
2019-03-17T22:30:21.419Z,13.66
2019-03-17T22:35:18.431Z,13.55
2019-03-17T22:40:16.451Z,13.40
2019-03-17T22:45:15.106Z,13.22
2019-03-17T22:50:16.541Z,13.00
2019-03-17T22:55:13.805Z,12.83
2019-03-17T23:00:32.647Z,12.76
2019-03-17T23:05:29.882Z,12.63
2019-03-17T23:10:26.974Z,12.70
2019-03-17T23:15:24.012Z,12.60
2019-03-17T23:20:21.051Z,12.57
2019-03-17T23:25:18.068Z,12.56
2019-03-17T23:30:19.477Z,13.25
2019-03-17T23:35:16.667Z,13.52
2019-03-17T23:40:15.388Z,13.69
2019-03-17T23:45:12.638Z,13.86
2019-03-17T23:50:15.708Z,13.87
2019-03-17T23:55:13.259Z,13.73
